Latest Weather Observations for Tatura

IDV60801

Issued at 10:31 pm EST Sunday 19 April 2015 (issued every 30 minutes, with the page automatically refreshed every 10 minutes)

About weather observations | Map of weather stations | Latest weather observations for VIC | Other Formats
Station Details ID: 081049 Name: TATURA INST SUSTAINABLE AG Lat: -36.44 Lon: 145.27 Height: 114.0 m
Data from the previous 72 hours. | See also: Recent months at Tatura
Date/Time
EST
Temp
°C
App
Temp
°C
Dew
Point
Rel
Hum
%
Delta-T
°C
Wind Press
QNH
hPa
Press
MSL
hPa
Rain
since 9 am
mm
Dir
 
Spd
km/h
Gust
km/h
Spd
kts
Gust
kts
19/10:30pm 7.6 3.7 3.5 75 1.8 SE 13 19 7 10 - - 0.0
19/10:00pm 7.6 3.7 3.6 76 1.7 SE 13 19 7 10 - - 0.0
19/09:30pm 7.6 4.5 3.6 76 1.7 SE 9 13 5 7 - - 0.0
19/09:00pm 8.5 4.3 3.9 73 2.0 S 15 20 8 11 - - 0.0
19/08:30pm 8.7 4.6 4.1 73 2.0 SSE 15 20 8 11 - - 0.0
19/08:00pm 9.0 4.8 3.6 69 2.4 SSE 15 20 8 11 - - 0.0
19/07:30pm 9.3 4.7 3.5 67 2.5 SE 17 24 9 13 - - 0.0
19/07:00pm 9.8 5.1 2.9 62 3.0 SE 17 26 9 14 - - 0.0
19/06:30pm 10.5 4.5 3.1 60 3.2 SSE 24 35 13 19 - - 0.0
19/06:00pm 10.6 5.4 3.6 62 3.1 SE 20 28 11 15 - - 0.0
19/05:30pm 11.1 5.5 3.6 60 3.3 SE 22 39 12 21 - - 0.0
19/05:00pm 11.7 5.4 3.5 57 3.7 SE 26 41 14 22 - - 0.0
19/04:30pm 12.3 5.4 4.5 59 3.6 SE 30 43 16 23 - - 0.0
19/04:18pm 12.7 5.4 4.4 57 3.8 SE 32 50 17 27 - - 0.0
19/04:00pm 12.6 5.5 3.8 55 4.0 SSE 30 50 16 27 - - 0.0
19/03:30pm 13.7 6.9 5.3 57 4.0 SSE 30 50 16 27 - - 0.0
19/03:03pm 14.2 7.3 4.5 52 4.5 SSE 30 61 16 33 - - 0.0
19/03:00pm 14.2 7.5 3.9 50 4.7 SE 28 41 15 22 - - 0.0
19/02:30pm 14.5 8.8 5.0 53 4.5 SE 24 39 13 21 - - 0.0
19/02:00pm 14.4 7.2 5.0 53 4.4 SE 32 48 17 26 - - 0.0
19/01:45pm 14.2 6.8 4.8 53 4.4 SE 33 52 18 28 - - 0.0
19/01:30pm 13.8 6.3 4.4 53 4.3 SE 33 48 18 26 - - 0.0
19/01:00pm 13.5 6.4 3.8 52 4.4 SE 30 46 16 25 - - 0.0
19/12:30pm 13.8 6.4 4.9 55 4.2 SE 33 46 18 25 - - 0.0
19/12:21pm 13.9 6.6 4.5 53 4.4 SE 32 50 17 27 - - 0.0
19/12:00pm 13.1 5.7 4.8 57 3.8 SE 33 48 18 26 - - 0.0
19/11:40am 12.7 5.9 5.1 60 3.5 SSE 30 52 16 28 - - 0.0
19/11:30am 13.1 6.0 5.5 60 3.6 SSE 32 46 17 25 - - 0.0
19/11:00am 12.4 5.4 5.8 64 3.1 SSE 32 50 17 27 - - 0.0
19/10:30am 12.3 5.4 6.4 67 2.8 SE 32 50 17 27 - - 0.0
19/10:21am 12.3 6.2 6.4 67 2.8 SSE 28 46 15 25 - - 0.0
19/10:00am 11.5 4.6 6.4 71 2.4 S 32 46 17 25 - - 0.0
19/09:30am 11.6 5.6 6.9 73 2.3 ESE 28 39 15 21 - - 0.0
19/09:00am 10.7 4.6 6.5 75 2.0 SSE 28 41 15 22 - - 0.2
19/08:30am 10.2 5.8 6.4 77 1.8 S 19 32 10 17 - - 0.2
19/08:00am 9.3 6.3 5.9 79 1.6 S 11 19 6 10 - - 0.2
19/07:30am 8.6 5.1 5.4 80 1.4 SSW 13 19 7 10 - - 0.2
19/07:00am 8.1 4.2 5.4 83 1.2 SW 15 20 8 11 - - 0.2
19/06:30am 8.3 4.8 5.6 83 1.2 SW 13 17 7 9 - - 0.2
19/06:00am 8.4 5.4 5.9 84 1.1 SW 11 17 6 9 - - 0.2
19/05:30am 9.0 5.6 5.9 81 1.4 SSW 13 19 7 10 - - 0.2
19/05:00am 9.1 5.8 6.4 83 1.3 SW 13 19 7 10 - - 0.2
19/04:30am 9.3 5.7 6.7 84 1.2 SW 15 22 8 12 - - 0.2
19/04:00am 8.5 6.2 7.6 94 0.4 WSW 9 15 5 8 - - 0.2
19/03:30am 8.7 6.4 7.5 92 0.6 WSW 9 11 5 6 - - 0.2
19/03:00am 9.5 6.9 7.8 89 0.8 SW 11 17 6 9 - - 0.2
19/02:30am 10.1 7.6 8.0 87 1.0 SSW 11 17 6 9 - - 0.2
19/02:00am 10.4 7.5 8.3 87 1.0 SSW 13 19 7 10 - - 0.2
19/01:30am 10.5 7.7 8.6 88 0.9 SSW 13 19 7 10 - - 0.2
19/01:00am 10.4 7.3 9.0 91 0.7 S 15 22 8 12 - - 0.2
19/12:30am 10.4 6.0 8.8 90 0.8 S 22 32 12 17 - - 0.2
19/12:00am 10.3 5.9 9.1 92 0.6 SE 22 32 12 17 - - 0.2
 
Date/Time
EST
Temp
°C
App
Temp
°C
Dew
Point
Rel
Hum
%
Delta-T
°C
Wind Press
QNH
hPa
Press
MSL
hPa
Rain
since 9 am
mm
Dir
 
Spd
km/h
Gust
km/h
Spd
kts
Gust
kts
18/11:30pm 11.1 5.6 9.0 87 1.0 SE 28 41 15 22 - - 0.0
18/11:01pm 11.2 5.9 9.9 92 0.7 SSE 28 46 15 25 - - 0.0
18/11:00pm 11.2 5.5 9.9 92 0.7 SSE 30 46 16 25 - - 0.0
18/10:33pm 14.0 8.1 11.0 82 1.6 SSW 33 46 18 25 - - 0.0
18/10:30pm 15.5 12.5 11.9 79 2.0 W 19 22 10 12 - - 0.0
18/10:00pm 15.2 12.7 11.2 77 2.1 NW 15 20 8 11 - - 0.0
18/09:30pm 14.6 13.7 11.2 80 1.8 NNW 7 13 4 7 - - 0.0
18/09:00pm 14.0 13.1 11.3 84 1.4 N 7 9 4 5 - - 0.0
18/08:30pm 13.4 12.4 11.1 86 1.2 N 7 9 4 5 - - 0.0
18/08:00pm 13.1 12.0 10.8 86 1.2 N 7 9 4 5 - - 0.0
18/07:30pm 12.9 11.3 10.3 84 1.4 N 9 11 5 6 - - 0.0
18/07:00pm 12.6 12.6 9.8 83 1.4 CALM 0 2 0 1 - - 0.0
18/06:30pm 13.9 12.6 10.1 78 2.0 N 7 9 4 5 - - 0.0
18/06:00pm 14.5 13.1 9.7 73 2.5 NNW 7 9 4 5 - - 0.0
18/05:30pm 16.5 14.1 9.9 65 3.5 WNW 13 20 7 11 - - 0.0
18/05:00pm 17.6 14.7 9.8 60 4.1 NW 15 22 8 12 - - 0.0
18/04:30pm 17.9 15.1 10.0 60 4.2 NW 15 20 8 11 - - 0.0
18/04:00pm 17.0 14.5 11.1 68 3.2 NW 15 20 8 11 - - 0.0
18/03:30pm 17.0 14.6 11.5 70 3.0 WNW 15 22 8 12 - - 0.0
18/03:00pm 17.1 14.4 11.6 70 3.0 WNW 17 22 9 12 - - 0.0
18/02:30pm 17.3 14.5 12.6 74 2.6 W 19 26 10 14 - - 0.0
18/02:00pm 17.0 14.0 12.5 75 2.5 WNW 20 28 11 15 - - 0.0
18/01:30pm 16.7 14.1 13.2 80 2.0 W 19 24 10 13 - - 0.0
18/01:00pm 16.5 14.5 14.0 85 1.4 W 17 24 9 13 - - 0.0
18/12:30pm 15.8 15.2 14.7 93 0.6 W 11 15 6 8 - - 0.0
18/12:00pm 15.4 13.6 14.4 94 0.6 W 17 24 9 13 - - 0.0
18/11:30am 15.9 14.5 14.4 91 0.9 W 15 20 8 11 - - 0.0
18/11:00am 15.9 15.4 14.8 93 0.6 WNW 11 17 6 9 - - 0.0
18/10:30am 16.0 15.5 14.9 93 0.6 NW 11 15 6 8 - - 0.0
18/10:00am 15.6 15.5 15.0 96 0.3 WNW 9 11 5 6 - - 0.0
18/09:30am 15.6 14.8 15.0 96 0.3 W 13 20 7 11 - - 0.0
18/09:00am 15.8 15.4 15.2 96 0.3 WNW 11 15 6 8 - - 16.4
18/08:30am 15.8 15.4 15.3 97 0.3 WNW 11 17 6 9 - - 16.4
18/08:00am 15.6 15.6 15.3 98 0.2 W 9 13 5 7 - - 16.4
18/07:30am 15.5 17.2 15.2 98 0.2 CALM 0 0 0 0 - - 16.4
18/07:00am 15.4 15.7 15.1 98 0.2 NW 7 7 4 4 - - 16.4
18/06:30am 15.4 15.7 15.1 98 0.2 WNW 7 11 4 6 - - 16.2
18/06:00am 15.4 15.4 15.1 98 0.2 WNW 9 13 5 7 - - 15.6
18/05:30am 15.6 15.6 15.3 98 0.2 NW 9 13 5 7 - - 15.4
18/05:00am 15.7 15.8 15.4 98 0.2 WNW 9 15 5 8 - - 14.4
18/04:30am 15.7 15.8 15.5 99 0.1 WNW 9 11 5 6 - - 13.8
18/04:00am 15.6 16.6 15.4 99 0.1 NW 4 9 2 5 - - 13.8
18/03:30am 15.6 15.7 15.4 99 0.1 WNW 9 13 5 7 - - 13.8
18/03:00am 15.5 15.9 15.2 98 0.2 WNW 7 11 4 6 - - 13.4
18/02:30am 15.6 15.2 15.3 98 0.2 W 11 15 6 8 - - 13.0
18/02:00am 15.7 14.6 15.4 98 0.2 W 15 19 8 10 - - 12.2
18/01:30am 17.5 16.3 17.0 97 0.3 N 19 30 10 16 - - 9.6
18/01:00am 17.6 15.8 17.0 96 0.4 N 22 33 12 18 - - 9.6
18/12:30am 17.5 16.1 17.0 97 0.3 N 20 28 11 15 - - 9.4
18/12:00am 17.2 15.9 16.9 98 0.2 N 19 24 10 13 - - 9.4
 
Date/Time
EST
Temp
°C
App
Temp
°C
Dew
Point
Rel
Hum
%
Delta-T
°C
Wind Press
QNH
hPa
Press
MSL
hPa
Rain
since 9 am
mm
Dir
 
Spd
km/h
Gust
km/h
Spd
kts
Gust
kts
17/11:30pm 16.5 15.4 16.3 99 0.1 NE 17 22 9 12 - - 7.0
17/11:00pm 15.7 15.8 15.5 99 0.1 NE 9 11 5 6 - - 6.8
17/10:30pm 15.3 15.3 15.1 99 0.1 E 9 11 5 6 - - 6.6
17/10:00pm 15.0 14.5 14.8 99 0.1 E 11 15 6 8 - - 6.6
17/09:30pm 14.7 16.1 14.4 98 0.2 CALM 0 0 0 0 - - 6.6
17/09:00pm 14.6 16.0 14.3 98 0.2 CALM 0 0 0 0 - - 6.4
17/08:30pm 14.4 15.7 14.1 98 0.2 CALM 0 0 0 0 - - 5.4
17/08:00pm 14.2 15.4 13.7 97 0.3 CALM 0 0 0 0 - - 5.2
17/07:30pm 14.1 13.9 13.6 97 0.3 SSE 7 11 4 6 - - 5.0
17/07:00pm 14.1 14.5 13.6 97 0.3 E 4 11 2 6 - - 4.8
17/06:30pm 14.0 13.9 13.4 96 0.3 E 6 9 3 5 - - 4.8
17/06:00pm 13.9 13.6 13.3 96 0.3 ENE 7 13 4 7 - - 4.6
17/05:30pm 13.7 13.3 12.9 95 0.4 E 7 17 4 9 - - 4.6
17/05:00pm 13.7 13.3 12.9 95 0.4 E 7 13 4 7 - - 4.6
17/04:30pm 13.7 12.8 12.6 93 0.6 E 9 17 5 9 - - 4.4
17/04:00pm 13.9 12.6 12.6 92 0.7 E 11 17 6 9 - - 4.4
17/03:30pm 13.9 12.8 13.0 94 0.5 ESE 11 17 6 9 - - 4.4
17/03:00pm 13.8 13.0 13.0 95 0.4 E 9 13 5 7 - - 4.0
17/02:30pm 13.6 13.5 12.2 91 0.8 NE 4 7 2 4 - - 3.4
17/02:00pm 13.7 14.4 12.1 90 0.9 CALM 0 0 0 0 - - 2.6
17/01:30pm 13.9 14.6 12.3 90 0.9 CALM 0 0 0 0 - - 1.6
17/01:00pm 14.1 13.3 11.6 85 1.3 NE 7 9 4 5 - - 0.6
17/12:30pm 14.4 12.9 10.6 78 2.0 NNE 9 13 5 7 - - 0.0
17/12:00pm 14.8 12.7 9.8 72 2.6 NNE 11 15 6 8 - - 0.0
17/11:30am 14.9 13.2 9.9 72 2.6 NNE 9 13 5 7 - - 0.0
17/11:00am 14.6 12.5 9.8 73 2.5 ENE 11 13 6 7 - - 0.0
17/10:30am 14.0 11.9 9.8 76 2.2 NE 11 15 6 8 - - 0.0
17/10:00am 13.4 12.5 9.3 76 2.1 E 4 7 2 4 - - 0.0
17/09:30am 13.3 11.7 8.6 73 2.4 SE 7 11 4 6 - - 0.0
17/09:00am 13.0 11.4 8.7 75 2.2 SSE 7 11 4 6 - - 0.0
17/08:30am 12.6 9.8 8.5 76 2.0 SSE 13 17 7 9 - - 0.0
17/08:00am 12.4 10.8 8.7 78 1.9 SE 7 11 4 6 - - 0.0
17/07:30am 11.8 9.8 8.6 81 1.6 ESE 9 11 5 6 - - 0.0
17/07:00am 11.6 11.3 8.8 83 1.4 CALM 0 0 0 0 - - 0.0
17/06:30am 11.7 11.1 8.9 83 1.4 SE 2 9 1 5 - - 0.0
17/06:00am 11.8 11.5 8.8 82 1.5 CALM 0 0 0 0 - - 0.0
17/05:30am 12.0 11.6 8.1 77 1.9 CALM 0 0 0 0 - - 0.0
17/05:00am 12.3 11.9 8.2 76 2.0 CALM 0 13 0 7 - - 0.0
17/04:30am 12.5 12.1 8.2 75 2.1 CALM 0 0 0 0 - - 0.0
17/04:00am 12.5 10.7 8.0 74 2.2 SW 7 9 4 5 - - 0.0
17/03:30am 12.5 11.7 8.2 75 2.1 SW 2 13 1 7 - - 0.0
17/03:00am 12.6 12.2 8.1 74 2.2 CALM 0 0 0 0 - - 0.0
17/02:30am 12.8 11.0 8.1 73 2.3 S 7 13 4 7 - - 0.0
17/02:00am 13.0 10.1 8.3 73 2.3 SSE 13 19 7 10 - - 0.0
17/01:30am 13.3 9.7 8.4 72 2.5 SSE 17 22 9 12 - - 0.0
17/01:00am 13.7 10.1 8.3 70 2.7 SSE 17 24 9 13 - - 0.0
17/12:30am 13.8 11.3 8.4 70 2.7 SSE 11 17 6 9 - - 0.0
17/12:00am 14.0 11.6 8.6 70 2.7 SSE 11 19 6 10 - - 0.0
 
Date/Time
EST
Temp
°C
App
Temp
°C
Dew
Point
Rel
Hum
%
Delta-T
°C
Wind Press
QNH
hPa
Press
MSL
hPa
Rain
since 9 am
mm
Dir
 
Spd
km/h
Gust
km/h
Spd
kts
Gust
kts
16/11:30pm 14.1 11.7 8.7 70 2.7 SSE 11 17 6 9 - - 0.0
16/11:00pm 14.3 11.2 8.9 70 2.8 SSE 15 24 8 13 - - 0.0

Other Formats:

Comma delimited format used in spreadsheet applications
http://www.bom.gov.au/fwo/IDV60801/IDV60801.95836.axf

JavaScript Object Notation format (JSON) in row-major order
http://www.bom.gov.au/fwo/IDV60801/IDV60801.95836.json